Time;durP1;ratioP1;P1;durP2;ratioP2;P2;SDS_P1;SDS_P2;PMS_P1;PMS_P2;Temp;Humidity;BMP_temperature;BMP_pressure;BME280_temperature;BME280_humidity;BME280_pressure;Samples;Min_cycle;Max_cycle;Signal;HPM_P1;HPM_P2
2021/12/01 00:00:56;;;;;;;0.40;0.40;;;;;4.00;95525.00;;;;8335793;28;20255;-68
2021/12/01 00:04:59;;;;;;;0.40;0.40;;;;;4.00;95522.00;;;;8337631;28;20310;-69
2021/12/01 00:09:03;;;;;;;0.40;0.40;;;;;4.00;95529.00;;;;8346299;28;20223;-69
2021/12/01 00:13:10;;;;;;;0.40;0.40;;;;;4.00;95523.00;;;;8338265;28;20326;-71
2021/12/01 00:17:13;;;;;;;0.40;0.40;;;;;4.00;95515.00;;;;8336136;28;20228;-69
2021/12/01 00:21:17;;;;;;;0.40;0.40;;;;;3.90;95521.00;;;;8333273;28;20252;-69
2021/12/01 00:25:27;;;;;;;0.40;0.40;;;;;3.90;95523.00;;;;8349069;28;20219;-70
2021/12/01 00:29:31;;;;;;;0.40;0.40;;;;;4.00;95525.00;;;;8363154;28;20260;-72
2021/12/01 00:33:35;;;;;;;0.40;0.40;;;;;3.90;95521.00;;;;8343673;28;20301;-72
2021/12/01 00:37:39;;;;;;;0.40;0.40;;;;;3.90;95509.00;;;;8345641;28;20984;-72
2021/12/01 00:41:42;;;;;;;0.40;0.40;;;;;3.90;95504.00;;;;8354320;28;20251;-73
2021/12/01 00:45:54;;;;;;;0.40;0.40;;;;;3.90;95506.00;;;;8340161;28;20622;-72
2021/12/01 00:49:57;;;;;;;0.40;0.40;;;;;3.90;95496.00;;;;8323760;28;20312;-74
2021/12/01 00:54:00;;;;;;;0.40;0.40;;;;;3.90;95501.00;;;;8328413;28;20940;-72
2021/12/01 00:58:04;;;;;;;0.40;0.40;;;;;3.90;95497.00;;;;8334267;28;20312;-73
2021/12/01 01:02:08;;;;;;;0.40;0.40;;;;;3.90;95499.00;;;;8324798;28;20240;-73
2021/12/01 01:06:12;;;;;;;0.57;0.57;;;;;3.90;95496.00;;;;8331242;28;20630;-73
2021/12/01 01:10:29;;;;;;;0.40;0.40;;;;;3.90;95494.00;;;;8337759;28;20769;-73
2021/12/01 01:18:59;;;;;;;0.40;0.40;;;;;4.00;95477.00;;;;8354711;28;20795;-75
2021/12/01 01:23:03;;;;;;;0.43;0.43;;;;;4.00;95481.00;;;;8333655;28;20617;-73
2021/12/01 01:27:07;;;;;;;0.40;0.40;;;;;4.00;95482.00;;;;8343789;28;20248;-75
2021/12/01 01:31:13;;;;;;;0.40;0.40;;;;;4.00;95470.00;;;;8319600;28;20259;-73
2021/12/01 01:35:18;;;;;;;0.40;0.40;;;;;4.00;95462.00;;;;8331075;28;20237;-74
2021/12/01 01:39:23;;;;;;;0.40;0.40;;;;;4.00;95462.00;;;;8340768;28;20281;-73
2021/12/01 01:43:26;;;;;;;0.40;0.40;;;;;4.00;95462.00;;;;8343602;28;20250;-74
2021/12/01 01:47:29;;;;;;;0.40;0.40;;;;;4.00;95443.00;;;;8340792;28;20723;-74
2021/12/01 01:51:34;;;;;;;0.30;0.30;;;;;4.00;95452.00;;;;8329571;28;20304;-74
2021/12/01 01:55:40;;;;;;;0.40;0.40;;;;;4.00;95451.00;;;;8337099;28;20255;-75
2021/12/01 01:59:44;;;;;;;0.40;0.40;;;;;4.10;95441.00;;;;8343372;28;20239;-75
2021/12/01 02:03:48;;;;;;;0.80;0.80;;;;;4.10;95440.00;;;;8327425;28;20255;-75
2021/12/01 02:07:54;;;;;;;0.50;0.50;;;;;4.10;95438.00;;;;8334202;28;20264;-75
2021/12/01 02:12:00;;;;;;;0.37;0.37;;;;;4.10;95425.00;;;;8348486;28;20268;-75
2021/12/01 02:16:03;;;;;;;0.63;0.63;;;;;4.10;95436.00;;;;8339592;28;20256;-75
2021/12/01 02:20:20;;;;;;;0.40;0.40;;;;;4.10;95429.00;;;;8327271;28;20275;-75
2021/12/01 02:24:24;;;;;;;0.40;0.40;;;;;4.10;95430.00;;;;8316615;28;20227;-75
2021/12/01 02:28:28;;;;;;;0.40;0.40;;;;;4.10;95427.00;;;;8335833;28;20245;-75
2021/12/01 02:32:31;;;;;;;0.40;0.40;;;;;4.10;95407.00;;;;8339115;28;20258;-75
2021/12/01 02:36:36;;;;;;;0.40;0.40;;;;;4.10;95405.00;;;;8329347;28;20231;-75
2021/12/01 02:40:40;;;;;;;0.40;0.40;;;;;4.20;95414.00;;;;8355940;28;20277;-75
2021/12/01 02:44:45;;;;;;;0.40;0.40;;;;;4.20;95404.00;;;;8344891;28;20245;-75
2021/12/01 02:48:49;;;;;;;0.40;0.40;;;;;4.20;95407.00;;;;8337182;28;20720;-75
2021/12/01 02:52:53;;;;;;;0.40;0.40;;;;;4.20;95401.00;;;;8333571;28;20330;-75
2021/12/01 02:56:57;;;;;;;0.40;0.40;;;;;4.20;95402.00;;;;8356894;28;20410;-75
2021/12/01 03:01:05;;;;;;;0.47;0.47;;;;;4.30;95392.00;;;;8376955;22;23107;-74
2021/12/01 03:05:10;;;;;;;0.43;0.43;;;;;4.30;95386.00;;;;8336773;28;20227;-74
2021/12/01 03:09:15;;;;;;;0.73;0.67;;;;;4.30;95384.00;;;;8339298;28;20245;-74
2021/12/01 03:13:19;;;;;;;1.40;0.70;;;;;4.30;95377.00;;;;8333559;28;20803;-74
2021/12/01 03:17:23;;;;;;;0.40;0.40;;;;;4.40;95370.00;;;;8334472;28;20726;-73
2021/12/01 03:21:26;;;;;;;0.50;0.50;;;;;4.40;95365.00;;;;8336824;28;20308;-74
2021/12/01 03:25:31;;;;;;;0.60;0.60;;;;;4.40;95361.00;;;;8344739;28;20323;-74
2021/12/01 03:29:35;;;;;;;0.40;0.40;;;;;4.50;95349.00;;;;8334373;28;20248;-73
2021/12/01 03:33:38;;;;;;;0.50;0.50;;;;;4.50;95340.00;;;;8333173;28;20252;-72
2021/12/01 03:37:43;;;;;;;0.40;0.40;;;;;4.50;95335.00;;;;8335926;28;20265;-72
2021/12/01 03:41:48;;;;;;;0.30;0.30;;;;;4.50;95329.00;;;;8330054;28;20296;-72
2021/12/01 03:45:51;;;;;;;1.40;0.70;;;;;4.50;95332.00;;;;8344013;28;20663;-73
2021/12/01 03:49:54;;;;;;;0.40;0.40;;;;;4.50;95319.00;;;;8332400;28;20232;-73
2021/12/01 03:53:57;;;;;;;0.40;0.40;;;;;4.50;95307.00;;;;8329742;28;20337;-73
2021/12/01 03:58:03;;;;;;;0.50;0.50;;;;;4.50;95306.00;;;;8340760;28;20252;-73
2021/12/01 04:02:06;;;;;;;0.40;0.40;;;;;4.50;95299.00;;;;8328239;28;20355;-73
2021/12/01 04:06:10;;;;;;;0.50;0.50;;;;;4.50;95290.00;;;;8312230;28;20850;-73
2021/12/01 04:10:16;;;;;;;0.30;0.30;;;;;4.50;95277.00;;;;8308118;28;20260;-73
2021/12/01 04:14:21;;;;;;;0.30;0.30;;;;;4.50;95276.00;;;;8316144;28;20379;-73
2021/12/01 04:18:25;;;;;;;1.53;0.83;;;;;4.60;95259.00;;;;8313289;28;20263;-73
2021/12/01 04:22:28;;;;;;;0.50;0.50;;;;;4.60;95261.00;;;;8312556;28;20250;-73
2021/12/01 04:26:33;;;;;;;0.70;0.70;;;;;4.60;95260.00;;;;8315048;28;20251;-73
2021/12/01 04:30:37;;;;;;;0.40;0.40;;;;;4.60;95258.00;;;;8315502;28;20225;-73
2021/12/01 04:34:40;;;;;;;0.40;0.40;;;;;4.60;95256.00;;;;8314954;28;20249;-73
2021/12/01 04:38:44;;;;;;;0.30;0.30;;;;;4.60;95252.00;;;;8320803;28;20236;-73
2021/12/01 04:42:47;;;;;;;0.40;0.40;;;;;4.60;95241.00;;;;8317190;28;20319;-73
2021/12/01 04:46:56;;;;;;;0.40;0.40;;;;;4.60;95225.00;;;;8320213;28;20309;-74
2021/12/01 04:51:01;;;;;;;0.30;0.30;;;;;4.70;95234.00;;;;8318585;28;20696;-73
2021/12/01 04:55:05;;;;;;;0.40;0.40;;;;;4.70;95236.00;;;;8319045;28;20315;-74
2021/12/01 04:59:08;;;;;;;0.30;0.30;;;;;4.70;95237.00;;;;8318725;28;20307;-72
2021/12/01 05:03:13;;;;;;;0.40;0.40;;;;;4.70;95228.00;;;;8324684;28;20646;-73
2021/12/01 05:07:25;;;;;;;0.40;0.40;;;;;4.70;95241.00;;;;8318941;28;20224;-74
2021/12/01 05:11:29;;;;;;;0.50;0.50;;;;;4.70;95227.00;;;;8323449;28;20275;-74
2021/12/01 05:15:45;;;;;;;0.40;0.40;;;;;4.70;95215.00;;;;8325723;28;20244;-74
2021/12/01 05:19:50;;;;;;;0.40;0.40;;;;;4.70;95222.00;;;;8318935;28;20232;-74
2021/12/01 05:23:53;;;;;;;0.40;0.40;;;;;4.70;95232.00;;;;8315478;28;20263;-74
2021/12/01 05:27:56;;;;;;;0.40;0.40;;;;;4.70;95231.00;;;;8319089;28;20232;-73
2021/12/01 05:32:00;;;;;;;0.40;0.40;;;;;4.80;95222.00;;;;8316556;28;20914;-73
2021/12/01 05:36:06;;;;;;;0.40;0.40;;;;;4.80;95229.00;;;;8311208;28;20235;-73
2021/12/01 05:40:10;;;;;;;0.40;0.40;;;;;4.80;95224.00;;;;8322693;28;20624;-73
2021/12/01 05:44:13;;;;;;;0.40;0.40;;;;;4.90;95225.00;;;;8312173;28;20270;-74
2021/12/01 05:48:17;;;;;;;0.47;0.47;;;;;4.90;95225.00;;;;8320270;28;20251;-72
2021/12/01 05:52:22;;;;;;;0.40;0.40;;;;;4.90;95222.00;;;;8318907;28;20313;-72
2021/12/01 05:56:25;;;;;;;0.30;0.30;;;;;5.00;95222.00;;;;8320294;28;20315;-73
2021/12/01 06:00:28;;;;;;;0.57;0.57;;;;;5.00;95213.00;;;;8318062;28;20252;-72
2021/12/01 06:04:32;;;;;;;0.40;0.40;;;;;5.00;95208.00;;;;8316298;28;20230;-71
2021/12/01 06:08:37;;;;;;;0.40;0.40;;;;;5.00;95211.00;;;;8315275;28;20311;-75
2021/12/01 06:12:41;;;;;;;0.40;0.40;;;;;5.10;95204.00;;;;8316957;28;20252;-73
2021/12/01 06:16:44;;;;;;;0.40;0.40;;;;;5.10;95206.00;;;;8321560;28;20645;-72
2021/12/01 06:20:47;;;;;;;0.50;0.50;;;;;5.20;95177.00;;;;8310128;28;20348;-72
2021/12/01 06:24:52;;;;;;;0.40;0.40;;;;;5.20;95180.00;;;;8308561;28;20865;-72
2021/12/01 06:28:55;;;;;;;0.40;0.40;;;;;5.20;95170.00;;;;8311109;28;20320;-72
2021/12/01 06:32:59;;;;;;;0.30;0.30;;;;;5.10;95159.00;;;;8318298;28;20279;-72
2021/12/01 06:37:02;;;;;;;0.40;0.40;;;;;5.10;95149.00;;;;8313830;28;20235;-72
2021/12/01 06:41:07;;;;;;;0.30;0.30;;;;;5.10;95143.00;;;;8315930;28;20244;-72
2021/12/01 06:45:12;;;;;;;0.40;0.40;;;;;5.10;95142.00;;;;8327276;28;20258;-72
2021/12/01 06:49:15;;;;;;;0.40;0.40;;;;;5.10;95136.00;;;;8305912;28;20382;-72
2021/12/01 06:53:19;;;;;;;0.50;0.50;;;;;5.10;95132.00;;;;8317660;28;20232;-72
2021/12/01 06:57:24;;;;;;;0.47;0.47;;;;;5.10;95131.00;;;;8311047;28;20767;-72
2021/12/01 07:01:27;;;;;;;0.40;0.40;;;;;5.10;95119.00;;;;8312582;28;20272;-72
2021/12/01 07:05:31;;;;;;;0.50;0.50;;;;;5.10;95117.00;;;;8316514;28;20247;-71
2021/12/01 07:09:35;;;;;;;0.40;0.40;;;;;5.10;95115.00;;;;8319329;28;20279;-71
2021/12/01 07:13:39;;;;;;;0.40;0.40;;;;;5.10;95101.00;;;;8320460;28;20266;-71
2021/12/01 07:17:43;;;;;;;0.30;0.30;;;;;5.10;95083.00;;;;8315797;28;20282;-71
2021/12/01 07:21:46;;;;;;;0.40;0.40;;;;;5.10;95078.00;;;;8311167;28;20311;-72
2021/12/01 07:25:49;;;;;;;0.40;0.40;;;;;5.20;95074.00;;;;8320098;28;20361;-72
2021/12/01 07:29:54;;;;;;;0.30;0.30;;;;;5.20;95074.00;;;;8311219;28;20869;-71
2021/12/01 07:33:57;;;;;;;0.53;0.53;;;;;5.20;95076.00;;;;8319058;28;20311;-71
2021/12/01 07:38:00;;;;;;;0.40;0.40;;;;;5.30;95074.00;;;;8314454;28;20323;-72
2021/12/01 07:42:04;;;;;;;0.50;0.50;;;;;5.30;95074.00;;;;8313298;28;20308;-72
2021/12/01 07:46:09;;;;;;;0.40;0.40;;;;;5.40;95074.00;;;;8314213;28;20248;-72
2021/12/01 07:50:12;;;;;;;0.30;0.30;;;;;5.50;95062.00;;;;8320935;28;20283;-71
2021/12/01 07:54:16;;;;;;;0.67;0.67;;;;;5.50;95060.00;;;;8314990;28;20329;-71
2021/12/01 07:58:19;;;;;;;0.40;0.40;;;;;5.60;95059.00;;;;8313225;28;20246;-71
2021/12/01 08:02:24;;;;;;;0.30;0.30;;;;;5.60;95056.00;;;;8312794;28;20312;-71
2021/12/01 08:06:30;;;;;;;0.30;0.30;;;;;5.70;95041.00;;;;8315294;28;20270;-71
2021/12/01 08:10:33;;;;;;;0.50;0.50;;;;;5.70;95038.00;;;;8314187;28;20316;-71
2021/12/01 08:14:37;;;;;;;0.30;0.30;;;;;5.80;95026.00;;;;8314925;28;20252;-71
2021/12/01 08:18:41;;;;;;;0.50;0.50;;;;;5.80;95024.00;;;;8319392;28;20266;-72
2021/12/01 08:22:45;;;;;;;0.40;0.40;;;;;5.90;95027.00;;;;8324456;28;20235;-72
2021/12/01 08:26:49;;;;;;;0.50;0.50;;;;;5.90;95043.00;;;;8319947;28;20225;-73
2021/12/01 08:30:53;;;;;;;0.40;0.40;;;;;6.00;95038.00;;;;8317068;28;20850;-72
2021/12/01 08:34:57;;;;;;;0.50;0.50;;;;;6.00;95030.00;;;;8324237;28;20272;-72
2021/12/01 08:39:01;;;;;;;0.40;0.40;;;;;6.10;95032.00;;;;8319139;28;20252;-72
2021/12/01 08:43:05;;;;;;;0.47;0.47;;;;;6.20;95035.00;;;;8319054;28;20275;-72
2021/12/01 08:47:08;;;;;;;0.30;0.30;;;;;6.30;95028.00;;;;8316991;28;20705;-72
2021/12/01 08:51:13;;;;;;;0.40;0.40;;;;;6.30;95026.00;;;;8317532;28;20316;-73
2021/12/01 08:55:17;;;;;;;0.40;0.40;;;;;6.30;95019.00;;;;8318268;28;20254;-73
2021/12/01 08:59:40;;;;;;;0.43;0.43;;;;;6.30;95006.00;;;;8323104;28;20229;-73
2021/12/01 09:03:43;;;;;;;0.60;0.60;;;;;6.30;95008.00;;;;8317377;28;20312;-72
2021/12/01 09:07:48;;;;;;;0.47;0.47;;;;;6.30;95003.00;;;;8310442;28;20255;-72
2021/12/01 09:11:53;;;;;;;0.33;0.33;;;;;6.30;94991.00;;;;8310260;28;20796;-73
2021/12/01 09:15:56;;;;;;;0.50;0.50;;;;;6.30;94983.00;;;;8320346;28;20271;-72
2021/12/01 09:20:01;;;;;;;0.40;0.40;;;;;6.50;94974.00;;;;8326503;28;20308;-72
2021/12/01 09:24:06;;;;;;;0.50;0.50;;;;;6.50;94953.00;;;;8313822;28;20289;-72
2021/12/01 09:28:09;;;;;;;0.50;0.50;;;;;6.70;94950.00;;;;8316088;28;20237;-71
2021/12/01 09:32:12;;;;;;;0.40;0.40;;;;;6.80;94932.00;;;;8315169;28;20312;-72
2021/12/01 09:36:17;;;;;;;0.63;0.63;;;;;6.80;94923.00;;;;8316649;28;20233;-72
2021/12/01 09:40:22;;;;;;;0.40;0.40;;;;;6.70;94916.00;;;;8308550;28;20250;-72
2021/12/01 09:44:25;;;;;;;0.50;0.50;;;;;6.70;94903.00;;;;8311894;28;20312;-72
2021/12/01 09:48:30;;;;;;;0.87;0.87;;;;;6.80;94905.00;;;;8314691;28;20300;-72
2021/12/01 09:52:47;;;;;;;2.87;2.63;;;;;6.80;94899.00;;;;8317606;28;20227;-73
2021/12/01 09:56:51;;;;;;;1.23;1.23;;;;;6.80;94883.00;;;;8321484;28;20263;-73
2021/12/01 10:00:56;;;;;;;2.87;2.63;;;;;6.80;94868.00;;;;8315754;28;20264;-73
2021/12/01 10:05:01;;;;;;;7.00;3.67;;;;;6.90;94851.00;;;;8311879;28;20229;-73
2021/12/01 10:09:07;;;;;;;4.27;3.87;;;;;6.90;94846.00;;;;8316469;28;20230;-73
2021/12/01 10:13:12;;;;;;;5.10;4.53;;;;;6.90;94839.00;;;;8312913;28;20316;-72
2021/12/01 10:17:16;;;;;;;6.53;5.37;;;;;7.10;94824.00;;;;8316212;28;20625;-72
2021/12/01 10:21:21;;;;;;;1.77;1.67;;;;;7.20;94810.00;;;;8316530;28;20340;-72
2021/12/01 10:25:28;;;;;;;2.10;1.57;;;;;7.30;94811.00;;;;8318112;28;20257;-72
2021/12/01 10:29:35;;;;;;;1.53;1.53;;;;;7.40;94799.00;;;;8317667;28;20304;-72
2021/12/01 10:33:38;;;;;;;1.93;1.93;;;;;7.50;94780.00;;;;8312760;28;20279;-72
2021/12/01 10:37:42;;;;;;;4.07;2.27;;;;;7.60;94774.00;;;;8320787;28;20256;-71
2021/12/01 10:41:45;;;;;;;4.73;2.37;;;;;7.70;94770.00;;;;8315208;28;20244;-71
2021/12/01 10:45:50;;;;;;;1.30;1.30;;;;;7.70;94765.00;;;;8304048;28;20359;-71
2021/12/01 10:49:58;;;;;;;9.77;4.60;;;;;7.80;94744.00;;;;8313837;28;20389;-71
2021/12/01 10:54:02;;;;;;;7.23;4.63;;;;;7.70;94739.00;;;;8313506;28;20233;-71
2021/12/01 10:58:07;;;;;;;2.33;2.13;;;;;7.70;94721.00;;;;8314770;28;20224;-71
2021/12/01 11:02:13;;;;;;;5.27;4.83;;;;;7.70;94716.00;;;;8305888;28;20666;-71
2021/12/01 11:06:20;;;;;;;4.17;2.37;;;;;7.70;94711.00;;;;8310996;28;20299;-72
2021/12/01 11:10:25;;;;;;;2.80;2.57;;;;;7.70;94722.00;;;;8314491;28;20261;-71
2021/12/01 11:14:42;;;;;;;1.67;1.57;;;;;7.70;94712.00;;;;8311508;28;20256;-70
2021/12/01 11:18:49;;;;;;;0.60;0.60;;;;;7.70;94683.00;;;;8313788;28;20706;-71
2021/12/01 11:23:08;;;;;;;0.80;0.77;;;;;7.70;94667.00;;;;8313517;28;20733;-72
2021/12/01 11:27:11;;;;;;;0.60;0.60;;;;;7.80;94665.00;;;;8310453;28;20217;-70
2021/12/01 11:31:32;;;;;;;1.17;0.80;;;;;7.80;94658.00;;;;8313691;28;20229;-71
2021/12/01 11:35:38;;;;;;;0.73;0.73;;;;;7.80;94642.00;;;;8308326;28;20626;-71
2021/12/01 11:39:41;;;;;;;88.70;47.70;;;;;7.70;94630.00;;;;8305242;28;20252;-72
2021/12/01 11:43:44;;;;;;;5.17;4.03;;;;;7.80;94621.00;;;;8307015;28;20244;-72
2021/12/01 11:47:48;;;;;;;17.07;9.70;;;;;7.80;94607.00;;;;8310030;28;20316;-72
2021/12/01 11:51:58;;;;;;;304.97;164.97;;;;;7.80;94607.00;;;;8309691;28;20308;-71
2021/12/01 11:56:05;;;;;;;30.90;21.53;;;;;7.90;94603.00;;;;8313217;28;20320;-72
2021/12/01 12:00:10;;;;;;;7.20;6.43;;;;;8.10;94594.00;;;;8318570;28;20805;-72
2021/12/01 12:04:30;;;;;;;20.57;18.70;;;;;8.20;94586.00;;;;8311848;28;20264;-73
2021/12/01 12:08:58;;;;;;;4.03;3.73;;;;;8.30;94580.00;;;;8309695;28;20328;-72
2021/12/01 12:13:04;;;;;;;3.47;3.23;;;;;8.30;94567.00;;;;8301469;28;20304;-72
2021/12/01 12:17:12;;;;;;;1.90;1.73;;;;;8.40;94573.00;;;;8306333;28;20324;-72
2021/12/01 12:21:19;;;;;;;28.47;14.03;;;;;8.50;94566.00;;;;8306222;28;20237;-72
2021/12/01 12:25:49;;;;;;;16.67;11.20;;;;;8.50;94556.00;;;;8304465;28;20225;-72
2021/12/01 12:30:12;;;;;;;6.70;6.00;;;;;8.50;94547.00;;;;8302698;28;20244;-73
2021/12/01 12:34:18;;;;;;;15.07;13.63;;;;;8.50;94545.00;;;;8304530;28;20305;-72
2021/12/01 12:38:21;;;;;;;2.80;2.07;;;;;8.50;94540.00;;;;8304888;28;20753;-72
2021/12/01 12:42:26;;;;;;;1.30;1.30;;;;;8.50;94538.00;;;;8301375;28;20317;-71
2021/12/01 12:46:32;;;;;;;1.30;1.30;;;;;8.60;94523.00;;;;8303268;28;20293;-71
2021/12/01 12:50:35;;;;;;;1.37;1.27;;;;;8.50;94518.00;;;;8304891;28;20316;-71
2021/12/01 12:54:38;;;;;;;0.90;0.90;;;;;8.50;94517.00;;;;8304674;28;20255;-72
2021/12/01 12:58:43;;;;;;;2.57;1.33;;;;;8.60;94501.00;;;;8306352;28;20288;-72
2021/12/01 13:02:46;;;;;;;2.77;1.27;;;;;8.50;94499.00;;;;8308591;28;20265;-72
2021/12/01 13:06:53;;;;;;;1.20;1.20;;;;;8.50;94487.00;;;;8310816;28;20268;-71
2021/12/01 13:11:02;;;;;;;1.40;1.30;;;;;8.60;94480.00;;;;8309681;28;20382;-72
2021/12/01 13:15:07;;;;;;;1.20;1.20;;;;;8.60;94474.00;;;;8320939;28;20648;-72
2021/12/01 13:19:11;;;;;;;0.80;0.80;;;;;8.70;94460.00;;;;8314590;28;20272;-71
2021/12/01 13:23:19;;;;;;;1.53;1.30;;;;;8.70;94452.00;;;;8309569;28;20331;-71
2021/12/01 13:27:23;;;;;;;1.23;1.13;;;;;8.80;94435.00;;;;8295076;28;20328;-71
2021/12/01 13:31:30;;;;;;;1.10;1.10;;;;;8.90;94450.00;;;;8311259;28;20229;-71
2021/12/01 13:35:34;;;;;;;1.30;1.20;;;;;8.90;94440.00;;;;8306041;28;20563;-70
2021/12/01 13:39:39;;;;;;;1.00;1.00;;;;;9.00;94441.00;;;;8307408;28;20275;-70
2021/12/01 13:43:44;;;;;;;1.13;1.13;;;;;9.00;94433.00;;;;8308545;28;20619;-69
2021/12/01 13:47:49;;;;;;;0.90;0.90;;;;;8.90;94416.00;;;;8311575;28;20299;-69
2021/12/01 13:51:52;;;;;;;0.80;0.80;;;;;8.90;94408.00;;;;8310343;28;20308;-69
2021/12/01 13:55:57;;;;;;;1.13;1.10;;;;;8.90;94402.00;;;;8305647;28;20271;-69
2021/12/01 14:00:01;;;;;;;1.40;1.30;;;;;8.80;94396.00;;;;8313981;28;20635;-69
2021/12/01 14:04:08;;;;;;;1.13;1.13;;;;;8.60;94400.00;;;;8312556;28;20268;-68
2021/12/01 14:08:31;;;;;;;1.03;1.03;;;;;8.50;94394.00;;;;8318170;28;20249;-69
2021/12/01 14:12:40;;;;;;;2.63;2.03;;;;;8.40;94392.00;;;;8313759;28;20252;-69
2021/12/01 14:16:46;;;;;;;1.10;1.10;;;;;8.40;94382.00;;;;8314533;28;20312;-69
2021/12/01 14:21:13;;;;;;;1.40;1.30;;;;;8.30;94365.00;;;;8309445;28;20257;-69
2021/12/01 14:25:17;;;;;;;1.00;0.93;;;;;8.30;94374.00;;;;8311154;28;20216;-69
2021/12/01 14:29:21;;;;;;;1.07;0.97;;;;;8.40;94354.00;;;;8321990;28;20321;-69
2021/12/01 14:33:25;;;;;;;1.80;1.07;;;;;8.40;94352.00;;;;8305746;28;20257;-69
2021/12/01 14:37:30;;;;;;;1.10;1.10;;;;;8.50;94343.00;;;;8312003;28;20259;-69
2021/12/01 14:41:35;;;;;;;1.27;1.20;;;;;8.50;94328.00;;;;8317966;28;20229;-68
2021/12/01 14:45:38;;;;;;;1.20;1.20;;;;;8.50;94320.00;;;;8312128;28;20241;-69
2021/12/01 14:49:44;;;;;;;1.10;1.10;;;;;8.50;94316.00;;;;8318444;28;20229;-73
2021/12/01 14:53:55;;;;;;;1.10;1.10;;;;;8.50;94314.00;;;;8314078;28;20241;-68
2021/12/01 14:57:58;;;;;;;2.20;1.10;;;;;8.50;94309.00;;;;8313189;28;20435;-69
2021/12/01 15:02:15;;;;;;;0.90;0.90;;;;;8.50;94309.00;;;;8318177;28;20698;-69
2021/12/01 15:06:28;;;;;;;1.40;1.30;;;;;8.50;94300.00;;;;8313294;28;20232;-68
2021/12/01 15:10:39;;;;;;;3.60;1.87;;;;;8.50;94301.00;;;;8312571;28;20329;-69
2021/12/01 15:15:20;;;;;;;1.95;1.15;;;;;8.50;94290.00;;;;8307828;28;20221;-69
2021/12/01 15:19:24;;;;;;;3.13;1.30;;;;;8.50;94291.00;;;;8316447;28;20256;-69
2021/12/01 15:23:29;;;;;;;1.55;1.38;;;;;8.50;94285.00;;;;8314276;28;20862;-69
2021/12/01 15:27:33;;;;;;;1.67;1.57;;;;;8.40;94284.00;;;;8315253;28;20717;-69
2021/12/01 15:31:46;;;;;;;1.20;1.20;;;;;8.40;94285.00;;;;8314896;28;20304;-69
2021/12/01 15:35:49;;;;;;;1.90;1.30;;;;;8.50;94286.00;;;;8312165;28;20659;-69
2021/12/01 15:39:52;;;;;;;2.13;1.38;;;;;8.50;94282.00;;;;8316847;28;20228;-69
2021/12/01 15:43:57;;;;;;;1.90;1.00;;;;;8.60;94281.00;;;;8309156;28;20316;-70
2021/12/01 15:48:05;;;;;;;0.90;0.90;;;;;8.70;94280.00;;;;8315101;28;20221;-70
2021/12/01 15:52:08;;;;;;;2.15;1.20;;;;;8.60;94280.00;;;;8327629;28;20708;-70
2021/12/01 15:56:11;;;;;;;1.10;1.10;;;;;8.50;94272.00;;;;8313505;28;20248;-69
2021/12/01 16:00:19;;;;;;;1.33;1.33;;;;;8.50;94279.00;;;;8315144;28;20243;-70
2021/12/01 16:04:23;;;;;;;1.33;1.17;;;;;8.60;94275.00;;;;8318121;28;20222;-69
2021/12/01 16:08:27;;;;;;;2.90;1.43;;;;;8.80;94264.00;;;;8319109;28;20640;-70
2021/12/01 16:12:30;;;;;;;1.40;1.38;;;;;8.90;94261.00;;;;8315749;28;20248;-70
2021/12/01 16:16:36;;;;;;;1.10;1.10;;;;;8.90;94257.00;;;;8324827;28;20645;-69
2021/12/01 16:20:41;;;;;;;1.17;1.17;;;;;9.00;94262.00;;;;8308883;28;20240;-69
2021/12/01 16:24:44;;;;;;;0.93;0.93;;;;;9.00;94242.00;;;;8315502;28;20249;-70
2021/12/01 16:28:48;;;;;;;0.80;0.80;;;;;9.10;94260.00;;;;8314487;28;20328;-70
2021/12/01 16:32:55;;;;;;;1.30;1.20;;;;;9.10;94261.00;;;;8307687;28;20252;-70
2021/12/01 16:37:00;;;;;;;0.97;0.97;;;;;9.00;94256.00;;;;8318832;28;20248;-69
2021/12/01 16:41:05;;;;;;;1.33;1.30;;;;;9.00;94258.00;;;;8321093;28;20260;-69
2021/12/01 16:45:09;;;;;;;1.87;1.37;;;;;9.00;94267.00;;;;8324707;28;20269;-70
2021/12/01 16:49:15;;;;;;;0.95;0.95;;;;;9.00;94264.00;;;;8320950;28;20264;-69
2021/12/01 16:53:19;;;;;;;3.03;1.30;;;;;9.10;94256.00;;;;8319445;28;20678;-70
2021/12/01 16:57:22;;;;;;;1.65;1.50;;;;;9.10;94262.00;;;;8320647;28;20269;-70
2021/12/01 17:01:27;;;;;;;2.20;2.00;;;;;9.10;94262.00;;;;8318372;28;20241;-70
2021/12/01 17:05:31;;;;;;;1.33;1.33;;;;;8.90;94255.00;;;;8319426;28;20702;-69
2021/12/01 17:09:35;;;;;;;8.55;3.15;;;;;8.90;94251.00;;;;8317998;28;20264;-69
2021/12/01 17:13:38;;;;;;;4.73;2.37;;;;;8.90;94261.00;;;;8319518;28;20214;-70
2021/12/01 17:17:41;;;;;;;7.60;3.67;;;;;9.00;94262.00;;;;8317538;28;20233;-70
2021/12/01 17:21:47;;;;;;;5.25;3.65;;;;;9.10;94270.00;;;;8319741;28;20229;-69
2021/12/01 17:25:51;;;;;;;2.78;2.50;;;;;9.10;94267.00;;;;8318935;28;20252;-70
2021/12/01 17:29:57;;;;;;;7.67;3.87;;;;;9.10;94252.00;;;;8317919;28;20240;-70
2021/12/01 17:34:00;;;;;;;4.03;2.00;;;;;9.20;94264.00;;;;8320138;28;20260;-70
2021/12/01 17:38:05;;;;;;;2.38;1.90;;;;;9.20;94255.00;;;;8318244;28;20336;-70
2021/12/01 17:42:10;;;;;;;2.73;1.97;;;;;9.20;94246.00;;;;8319048;28;20228;-70
2021/12/01 17:46:16;;;;;;;1.40;1.30;;;;;9.20;94246.00;;;;8318225;28;20241;-70
2021/12/01 17:50:20;;;;;;;2.53;1.40;;;;;9.30;94256.00;;;;8315904;28;20656;-70
2021/12/01 17:54:25;;;;;;;1.10;1.10;;;;;9.30;94258.00;;;;8318179;28;20244;-70
2021/12/01 17:58:28;;;;;;;2.33;1.87;;;;;9.30;94261.00;;;;8323011;28;20252;-69
2021/12/01 18:02:32;;;;;;;9.30;4.38;;;;;9.30;94239.00;;;;8317193;28;20265;-69
2021/12/01 18:06:38;;;;;;;8.02;4.90;;;;;9.10;94257.00;;;;8312237;28;20256;-70
2021/12/01 18:10:45;;;;;;;9.60;5.23;;;;;9.00;94254.00;;;;8310935;28;20225;-69
2021/12/01 18:14:48;;;;;;;3.70;2.90;;;;;9.00;94248.00;;;;8316844;28;20312;-70
2021/12/01 18:18:52;;;;;;;5.63;2.97;;;;;9.00;94270.00;;;;8317184;28;20315;-69
2021/12/01 18:22:55;;;;;;;6.88;3.70;;;;;8.90;94270.00;;;;8313995;28;20269;-69
2021/12/01 18:27:00;;;;;;;3.97;3.27;;;;;8.90;94270.00;;;;8317947;28;20232;-69
2021/12/01 18:31:03;;;;;;;1.70;1.60;;;;;8.90;94282.00;;;;8314700;28;20266;-69
2021/12/01 18:35:07;;;;;;;8.20;6.53;;;;;8.90;94281.00;;;;8316771;28;20260;-69
2021/12/01 18:39:11;;;;;;;4.38;3.80;;;;;8.90;94275.00;;;;8310708;28;20257;-69
2021/12/01 18:43:16;;;;;;;219.07;120.23;;;;;9.00;94290.00;;;;8315591;28;20225;-69
2021/12/01 18:47:19;;;;;;;87.47;34.50;;;;;9.10;94286.00;;;;8332218;28;20283;-68
2021/12/01 18:51:22;;;;;;;102.83;42.47;;;;;9.10;94293.00;;;;8312517;28;20748;-68
2021/12/01 18:55:26;;;;;;;38.72;19.63;;;;;9.20;94287.00;;;;8311740;28;20340;-70
2021/12/01 18:59:50;;;;;;;7.00;5.97;;;;;9.20;94298.00;;;;8312895;28;20626;-69
2021/12/01 19:03:54;;;;;;;16.55;10.95;;;;;9.30;94294.00;;;;8309412;28;20273;-69
2021/12/01 19:07:58;;;;;;;14.15;10.52;;;;;9.30;94294.00;;;;8324516;28;20259;-69
2021/12/01 19:12:01;;;;;;;7.65;6.95;;;;;9.20;94308.00;;;;8314195;28;20259;-69
2021/12/01 19:16:07;;;;;;;14.67;11.00;;;;;9.20;94316.00;;;;8315700;28;20742;-69
2021/12/01 19:20:11;;;;;;;3.33;3.03;;;;;9.20;94324.00;;;;8312666;28;20264;-69
2021/12/01 19:24:14;;;;;;;5.57;3.65;;;;;9.10;94317.00;;;;8311372;28;20232;-69
2021/12/01 19:28:19;;;;;;;10.67;7.43;;;;;9.10;94332.00;;;;8313027;28;20307;-69
2021/12/01 19:32:24;;;;;;;8.00;5.80;;;;;9.10;94342.00;;;;8314362;28;20224;-70
2021/12/01 19:36:27;;;;;;;5.03;4.53;;;;;9.20;94333.00;;;;8314160;28;20304;-67
2021/12/01 19:40:31;;;;;;;1.40;1.40;;;;;9.10;94338.00;;;;8310855;28;20340;-68
2021/12/01 19:44:35;;;;;;;2.20;2.00;;;;;9.10;94352.00;;;;8314805;28;20249;-68
2021/12/01 19:48:43;;;;;;;1.60;1.50;;;;;9.00;94362.00;;;;8313196;28;20260;-68
2021/12/01 19:52:49;;;;;;;1.90;1.80;;;;;8.90;94362.00;;;;8313176;28;20244;-68
2021/12/01 19:56:55;;;;;;;1.35;1.35;;;;;8.90;94368.00;;;;8313306;28;20264;-67
2021/12/01 20:01:00;;;;;;;2.00;1.90;;;;;8.90;94361.00;;;;8312370;28;20229;-68
2021/12/01 20:05:06;;;;;;;2.20;2.00;;;;;8.80;94368.00;;;;8312255;28;20229;-69
2021/12/01 20:09:10;;;;;;;3.27;2.97;;;;;8.60;94379.00;;;;8310738;28;20256;-68
2021/12/01 20:13:14;;;;;;;1.53;1.53;;;;;8.50;94386.00;;;;8317078;28;20227;-68
2021/12/01 20:17:18;;;;;;;3.43;3.13;;;;;8.40;94395.00;;;;8318676;28;20619;-68
2021/12/01 20:21:24;;;;;;;5.33;4.37;;;;;8.30;94392.00;;;;8318479;28;20709;-68
2021/12/01 20:25:29;;;;;;;1.97;1.87;;;;;8.30;94401.00;;;;8319790;28;20260;-68
2021/12/01 20:29:33;;;;;;;1.70;1.70;;;;;8.20;94388.00;;;;8317465;28;20263;-69
2021/12/01 20:33:37;;;;;;;2.63;2.47;;;;;8.20;94406.00;;;;8318443;28;20233;-68
2021/12/01 20:37:43;;;;;;;4.47;3.40;;;;;8.20;94412.00;;;;8315356;28;20898;-69
2021/12/01 20:41:47;;;;;;;5.60;5.10;;;;;8.20;94409.00;;;;8315805;28;20686;-69
2021/12/01 20:45:58;;;;;;;7.13;6.53;;;;;8.30;94408.00;;;;8318208;28;20268;-69